Time;durP1;ratioP1;P1;durP2;ratioP2;P2;SDS_P1;SDS_P2;PMS_P1;PMS_P2;Temp;Humidity;BMP_temperature;BMP_pressure;BME280_temperature;BME280_humidity;BME280_pressure;Samples;Min_cycle;Max_cycle;Signal;HPM_P1;HPM_P2
2021/11/16 00:02:13;;;;;;;26.77;15.15;;;;;;;7.11;100.00;102622.41;5020099;28;20101;-80
2021/11/16 00:04:39;;;;;;;32.10;16.00;;;;;;;7.13;100.00;102620.47;5017096;28;20506;-80
2021/11/16 00:07:06;;;;;;;30.70;15.57;;;;;;;7.12;100.00;102616.94;4983418;28;20367;-80
2021/11/16 00:09:32;;;;;;;29.00;15.35;;;;;;;7.15;100.00;102623.84;5017048;28;20080;-81
2021/11/16 00:11:58;;;;;;;25.80;15.65;;;;;;;7.15;100.00;102623.84;5024391;28;20403;-80
2021/11/16 00:14:27;;;;;;;29.00;15.50;;;;;;;7.18;100.00;102626.25;5012882;28;20032;-80
2021/11/16 00:16:52;;;;;;;30.25;15.95;;;;;;;7.19;100.00;102612.75;4998256;28;20110;-81
2021/11/16 00:19:18;;;;;;;31.25;16.27;;;;;;;7.20;100.00;102614.44;5005426;28;20084;-80
2021/11/16 00:21:45;;;;;;;30.73;16.45;;;;;;;7.21;100.00;102617.97;5015733;28;20336;-80
2021/11/16 00:24:19;;;;;;;31.02;16.60;;;;;;;7.05;100.00;102581.81;5016351;28;20049;-80
2021/11/16 00:26:45;;;;;;;30.95;16.73;;;;;;;7.21;100.00;102604.56;5015421;28;20034;-80
2021/11/16 00:29:12;;;;;;;26.85;15.70;;;;;;;7.20;100.00;102606.41;5017114;28;20046;-80
2021/11/16 00:31:39;;;;;;;30.15;17.20;;;;;;;7.17;100.00;102595.97;5014414;28;20029;-80
2021/11/16 00:34:07;;;;;;;29.48;16.08;;;;;;;7.07;100.00;102571.81;5014604;28;20109;-81
2021/11/16 00:36:32;;;;;;;28.85;16.05;;;;;;;7.24;100.00;102599.81;4999081;28;20036;-80
2021/11/16 00:38:59;;;;;;;30.00;17.13;;;;;;;7.26;100.00;102595.16;5014637;28;20022;-81
2021/11/16 00:41:25;;;;;;;35.97;18.70;;;;;;;7.26;100.00;102589.81;5015898;28;20085;-80
2021/11/16 00:43:51;;;;;;;35.45;18.15;;;;;;;7.30;100.00;102593.91;4997383;28;20166;-81
2021/11/16 00:46:17;;;;;;;35.55;19.38;;;;;;;7.33;100.00;102602.69;4999195;28;20041;-80
2021/11/16 00:48:43;;;;;;;34.83;19.80;;;;;;;7.28;100.00;102587.00;5016086;28;20022;-80
2021/11/16 00:51:10;;;;;;;33.70;18.25;;;;;;;7.29;100.00;102578.00;5012068;28;20045;-80
2021/11/16 00:53:37;;;;;;;34.20;19.05;;;;;;;7.20;100.00;102552.88;5016430;28;20468;-80
2021/11/16 00:56:07;;;;;;;34.17;18.20;;;;;;;7.19;100.00;102553.00;5014850;28;20107;-81
2021/11/16 00:58:35;;;;;;;37.78;18.98;;;;;;;7.40;100.00;102572.53;5012266;28;20026;-81
2021/11/16 01:01:02;;;;;;;37.17;18.25;;;;;;;7.40;100.00;102567.19;5016598;28;20522;-81
2021/11/16 01:03:29;;;;;;;34.30;19.05;;;;;;;7.39;100.00;102565.50;5015480;28;20374;-81
2021/11/16 01:05:56;;;;;;;38.17;19.60;;;;;;;7.38;100.00;102562.94;5016876;28;20033;-81
2021/11/16 01:08:22;;;;;;;33.50;18.63;;;;;;;7.39;100.00;102559.28;5014012;28;20108;-80
2021/11/16 01:10:47;;;;;;;33.30;18.67;;;;;;;7.39;100.00;102565.50;5015296;28;20045;-81
2021/11/16 01:13:15;;;;;;;35.80;19.05;;;;;;;7.36;100.00;102560.41;5019734;28;20038;-81
2021/11/16 01:15:49;;;;;;;36.03;19.20;;;;;;;7.35;100.00;102544.47;5017836;28;20033;-80
2021/11/16 01:18:15;;;;;;;36.88;18.60;;;;;;;7.39;100.00;102551.25;5014552;28;20025;-81
2021/11/16 01:20:48;;;;;;;36.15;19.48;;;;;;;7.28;100.00;102538.78;5022922;28;20109;-81
2021/11/16 01:23:14;;;;;;;36.60;19.90;;;;;;;7.37;100.00;102556.72;5013825;28;20324;-80
2021/11/16 01:25:44;;;;;;;33.72;19.35;;;;;;;7.29;100.00;102540.50;5014740;28;20018;-80
2021/11/16 01:28:12;;;;;;;35.97;19.55;;;;;;;7.36;100.00;102559.56;5013737;28;20037;-80
2021/11/16 01:30:42;;;;;;;37.05;19.52;;;;;;;7.24;100.00;102534.69;4997985;28;20041;-80
2021/11/16 01:33:20;;;;;;;39.67;19.52;;;;;;;7.35;100.00;102547.13;5011854;28;20029;-80
2021/11/16 01:35:46;;;;;;;35.95;19.55;;;;;;;7.35;100.00;102552.50;5010264;28;20053;-79
2021/11/16 01:38:15;;;;;;;36.72;20.20;;;;;;;7.28;100.00;102542.34;4993654;28;20065;-80
2021/11/16 01:40:43;;;;;;;37.28;20.95;;;;;;;7.35;100.00;102544.47;5029226;28;20034;-80
2021/11/16 01:43:10;;;;;;;37.05;20.92;;;;;;;7.36;100.00;102549.69;5014948;28;20042;-80
2021/11/16 01:45:37;;;;;;;38.05;21.05;;;;;;;7.37;100.00;102545.19;5012035;28;20033;-80
2021/11/16 01:48:07;;;;;;;38.40;20.70;;;;;;;7.27;100.00;102529.91;5014080;28;20083;-81
2021/11/16 01:50:39;;;;;;;40.42;21.25;;;;;;;7.39;100.00;102551.25;5013006;28;20471;-81
2021/11/16 01:53:04;;;;;;;42.50;21.65;;;;;;;7.21;100.00;102525.09;5013952;28;20109;-81
2021/11/16 01:55:30;;;;;;;41.65;21.35;;;;;;;7.39;100.00;102544.06;5014355;28;20030;-81
2021/11/16 01:57:57;;;;;;;40.03;21.35;;;;;;;7.39;100.00;102549.41;5010380;28;20125;-80
2021/11/16 02:00:31;;;;;;;42.85;22.02;;;;;;;7.35;100.00;102541.78;5014607;28;20034;-80
2021/11/16 02:02:58;;;;;;;43.17;22.10;;;;;;;7.37;100.00;102539.81;4992927;28;20046;-80
2021/11/16 02:05:45;;;;;;;41.22;22.55;;;;;;;7.38;100.00;102536.16;4995329;28;20041;-81
2021/11/16 02:08:13;;;;;;;41.88;21.80;;;;;;;7.38;100.00;102533.47;4994693;28;20057;-80
2021/11/16 02:10:40;;;;;;;43.72;22.10;;;;;;;7.38;100.00;102526.28;5000202;28;20115;-81
2021/11/16 02:13:06;;;;;;;42.13;21.67;;;;;;;7.15;100.00;102477.47;5014969;28;20034;-81
2021/11/16 02:15:36;;;;;;;44.60;22.13;;;;;;;7.35;100.00;102509.63;5013502;28;20463;-80
2021/11/16 02:18:03;;;;;;;42.35;22.75;;;;;;;7.40;100.00;102513.63;5014993;28;20026;-81
2021/11/16 02:20:30;;;;;;;43.63;21.90;;;;;;;7.41;100.00;102514.47;5014893;28;20383;-80
2021/11/16 02:22:56;;;;;;;46.72;23.70;;;;;;;7.41;100.00;102514.47;5015219;28;20045;-81
2021/11/16 02:25:21;;;;;;;47.67;23.20;;;;;;;7.40;100.00;102513.63;5020827;28;20443;-81
2021/11/16 02:27:49;;;;;;;45.13;23.00;;;;;;;7.43;100.00;102509.81;5007349;28;20052;-81
2021/11/16 02:30:15;;;;;;;42.13;22.10;;;;;;;7.43;100.00;102502.63;5021675;28;20048;-81
2021/11/16 02:32:46;;;;;;;43.15;23.58;;;;;;;7.40;100.00;102491.34;5018065;28;20040;-81
2021/11/16 02:35:14;;;;;;;45.85;23.92;;;;;;;7.30;100.00;102484.13;5000681;28;20030;-81
2021/11/16 02:37:40;;;;;;;45.90;23.35;;;;;;;7.28;100.00;102485.25;5017752;28;20040;-81
2021/11/16 02:40:06;;;;;;;48.33;24.30;;;;;;;7.29;100.00;102479.75;5012886;28;20351;-81
2021/11/16 02:42:34;;;;;;;52.88;24.90;;;;;;;7.45;100.00;102499.81;5013206;28;20038;-81
2021/11/16 02:44:59;;;;;;;48.20;24.48;;;;;;;7.43;100.00;102499.09;5012617;28;20036;-81
2021/11/16 02:47:25;;;;;;;54.08;25.08;;;;;;;7.44;100.00;102498.97;5008532;28;20034;-81
2021/11/16 02:49:54;;;;;;;48.30;24.20;;;;;;;7.36;100.00;102484.59;4977489;28;20034;-81
2021/11/16 02:52:20;;;;;;;47.83;23.98;;;;;;;7.46;100.00;102497.00;5012887;28;20036;-81
2021/11/16 02:54:45;;;;;;;49.17;25.33;;;;;;;7.43;100.00;102481.22;5013380;28;20367;-81
2021/11/16 02:57:12;;;;;;;51.58;24.88;;;;;;;7.49;100.00;102491.38;5013422;28;20111;-81
2021/11/16 02:59:38;;;;;;;46.80;24.23;;;;;;;7.50;100.00;102490.38;5012226;28;20028;-81
2021/11/16 03:02:04;;;;;;;49.05;23.40;;;;;;;7.43;100.00;102472.31;5011714;28;20136;-81
2021/11/16 03:04:33;;;;;;;39.40;20.73;;;;;;;7.51;100.00;102489.38;5012484;28;20029;-81
2021/11/16 03:07:03;;;;;;;42.97;19.77;;;;;;;7.41;100.00;102475.13;5013064;28;20109;-81
2021/11/16 03:09:31;;;;;;;40.30;18.83;;;;;;;7.56;100.00;102485.47;5013515;28;20080;-81
2021/11/16 03:11:58;;;;;;;33.83;17.40;;;;;;;7.57;100.00;102482.63;5012360;28;20042;-81
2021/11/16 03:14:24;;;;;;;31.42;17.00;;;;;;;7.57;100.00;102488.00;5014271;28;20026;-81
2021/11/16 03:16:50;;;;;;;31.58;17.20;;;;;;;7.58;100.00;102484.31;5013717;28;20121;-81
2021/11/16 03:19:16;;;;;;;30.15;16.45;;;;;;;7.59;100.00;102477.16;5014809;28;20026;-82
2021/11/16 03:22:15;;;;;;;28.30;15.77;;;;;;;7.54;100.00;102477.56;5011786;28;20034;-81
2021/11/16 03:24:35;;;;;;;28.13;15.45;;;;;;;7.41;100.00;102445.66;5013278;28;20057;-81
2021/11/16 03:27:07;;;;;;;31.08;15.90;;;;;;;7.42;100.00;102443.88;5012979;28;20040;-80
2021/11/16 03:29:34;;;;;;;28.98;15.63;;;;;;;7.60;100.00;102460.09;5012987;28;20030;-80
2021/11/16 03:32:08;;;;;;;30.00;15.98;;;;;;;7.60;100.00;102468.97;5013252;28;20046;-81
2021/11/16 03:34:34;;;;;;;29.63;16.20;;;;;;;7.62;100.00;102476.88;4999171;28;20026;-81
2021/11/16 03:36:59;;;;;;;26.77;16.00;;;;;;;7.61;100.00;102469.81;5019725;28;20052;-81
2021/11/16 03:39:26;;;;;;;26.42;15.20;;;;;;;7.60;100.00;102462.78;5017590;28;20068;-80
2021/11/16 03:41:52;;;;;;;31.92;16.30;;;;;;;7.58;100.00;102464.72;5012087;28;20448;-80
2021/11/16 03:44:18;;;;;;;26.35;15.40;;;;;;;7.61;100.00;102477.84;5012480;28;20037;-81
2021/11/16 03:46:44;;;;;;;26.58;15.45;;;;;;;7.61;100.00;102469.81;5012556;28;20357;-80
2021/11/16 03:49:12;;;;;;;30.45;16.23;;;;;;;7.54;100.00;102456.97;4994037;28;20045;-80
2021/11/16 03:51:45;;;;;;;28.83;15.25;;;;;;;7.61;100.00;102464.47;5012553;28;20087;-81
2021/11/16 03:54:13;;;;;;;26.17;15.10;;;;;;;7.60;100.00;102458.25;5012592;28;20029;-80
2021/11/16 03:56:39;;;;;;;29.23;15.35;;;;;;;7.61;100.00;102461.78;5012080;28;20037;-80
2021/11/16 03:59:05;;;;;;;26.90;15.50;;;;;;;7.61;100.00;102457.25;5017788;28;20033;-80
2021/11/16 04:01:34;;;;;;;25.67;15.35;;;;;;;7.63;100.00;102454.47;5016940;28;20030;-81
2021/11/16 04:04:01;;;;;;;25.15;15.70;;;;;;;7.58;100.00;102446.81;5018124;28;20029;-80
2021/11/16 04:06:27;;;;;;;26.30;15.18;;;;;;;7.63;100.00;102451.78;5024429;28;20030;-81
2021/11/16 04:08:55;;;;;;;26.65;15.57;;;;;;;7.52;100.00;102432.16;5022668;28;20042;-81
2021/11/16 04:11:21;;;;;;;27.42;16.05;;;;;;;7.46;100.00;102416.66;5017691;28;20026;-80
2021/11/16 04:13:46;;;;;;;28.23;15.55;;;;;;;7.59;100.00;102442.34;4999930;28;20155;-80
2021/11/16 04:16:12;;;;;;;26.08;15.73;;;;;;;7.65;100.00;102433.72;5015624;28;20535;-80
2021/11/16 04:18:38;;;;;;;28.58;16.75;;;;;;;7.51;100.00;102416.22;5001084;28;20464;-80
2021/11/16 04:21:05;;;;;;;28.40;17.10;;;;;;;7.68;100.00;102441.47;5015117;28;20064;-81
2021/11/16 04:23:30;;;;;;;28.63;16.48;;;;;;;7.69;100.00;102443.19;5015416;28;20034;-81
2021/11/16 04:25:57;;;;;;;28.98;16.55;;;;;;;7.71;100.00;102435.84;5015234;28;20081;-80
2021/11/16 04:28:24;;;;;;;32.88;16.52;;;;;;;7.74;100.00;102440.91;5014831;28;20159;-80
2021/11/16 04:30:51;;;;;;;30.70;18.02;;;;;;;7.68;100.00;102425.41;5017388;28;20054;-81
2021/11/16 04:33:20;;;;;;;31.30;17.38;;;;;;;7.74;100.00;102438.25;5017221;28;20053;-80
2021/11/16 04:35:45;;;;;;;32.25;19.08;;;;;;;7.72;100.00;102438.38;5016004;28;20018;-80
2021/11/16 04:38:14;;;;;;;29.55;19.13;;;;;;;7.69;100.00;102424.44;5012493;28;20037;-81
2021/11/16 04:40:43;;;;;;;33.35;19.27;;;;;;;7.74;100.00;102432.88;5014458;28;20038;-80
2021/11/16 04:43:17;;;;;;;34.20;19.80;;;;;;;7.73;100.00;102431.19;5024510;28;20026;-81
2021/11/16 04:45:42;;;;;;;33.58;20.50;;;;;;;7.69;100.00;102427.94;5015446;28;20055;-81
2021/11/16 04:48:15;;;;;;;37.08;21.13;;;;;;;7.72;100.00;102430.34;5019668;28;20448;-80
2021/11/16 05:04:04;;;;;;;55.33;26.95;;;;;;;7.44;100.00;102396.34;5011194;28;20375;-81
2021/11/16 05:06:30;;;;;;;54.67;27.77;;;;;;;7.54;100.00;102408.75;4997214;28;20030;-81
2021/11/16 05:08:55;;;;;;;54.22;28.05;;;;;;;7.47;100.00;102401.41;4982327;28;20129;-80
2021/11/16 05:11:21;;;;;;;57.10;28.45;;;;;;;7.61;100.00;102424.28;5015100;28;20389;-81
2021/11/16 05:13:48;;;;;;;56.90;28.65;;;;;;;7.59;100.00;102424.41;5017209;28;20037;-83
2021/11/16 05:16:17;;;;;;;59.90;28.90;;;;;;;7.59;100.00;102416.38;5028985;28;20120;-83
2021/11/16 05:18:43;;;;;;;59.30;28.63;;;;;;;7.58;100.00;102416.50;5044952;28;20022;-83
2021/11/16 05:21:10;;;;;;;59.95;29.40;;;;;;;7.58;100.00;102424.53;5026782;28;20044;-81
2021/11/16 05:23:43;;;;;;;56.75;28.95;;;;;;;7.56;100.00;102421.19;5021936;28;20064;-82
2021/11/16 05:26:09;;;;;;;57.90;27.75;;;;;;;7.53;100.00;102415.09;4999041;28;20377;-82
2021/11/16 05:28:35;;;;;;;61.25;28.60;;;;;;;7.42;100.00;102399.19;5021780;28;20075;-81
2021/11/16 05:31:01;;;;;;;59.67;28.90;;;;;;;7.36;100.00;102385.50;5021953;28;20045;-82
2021/11/16 05:33:27;;;;;;;59.10;28.52;;;;;;;7.48;100.00;102403.97;5005168;28;20045;-83
2021/11/16 05:35:58;;;;;;;54.45;28.27;;;;;;;7.20;100.00;102364.63;5022070;28;20056;-82
2021/11/16 05:38:27;;;;;;;58.05;29.23;;;;;;;7.42;100.00;102395.66;5019666;28;20474;-83
2021/11/16 05:40:53;;;;;;;57.95;27.33;;;;;;;7.49;100.00;102405.66;5020729;28;20037;-83
2021/11/16 05:43:19;;;;;;;52.67;27.25;;;;;;;7.50;100.00;102407.34;5022681;28;20026;-82
2021/11/16 05:45:46;;;;;;;54.65;27.65;;;;;;;7.48;100.00;102406.66;5019650;28;20030;-82
2021/11/16 05:48:12;;;;;;;56.40;27.50;;;;;;;7.47;100.00;102399.59;5013641;28;20059;-82
2021/11/16 05:50:39;;;;;;;50.13;27.02;;;;;;;7.39;100.00;102382.53;5024548;28;21275;-82
2021/11/16 05:53:06;;;;;;;56.35;28.13;;;;;;;7.37;100.00;102382.66;5014514;28;20037;-83
2021/11/16 05:55:32;;;;;;;54.30;26.85;;;;;;;7.45;100.00;102393.53;5022121;28;20030;-82
2021/11/16 05:57:59;;;;;;;54.20;27.58;;;;;;;7.48;100.00;102393.28;5027926;28;20052;-83
2021/11/16 06:00:31;;;;;;;55.63;28.05;;;;;;;7.29;100.00;102361.09;5027823;28;20021;-83
2021/11/16 06:02:56;;;;;;;58.28;29.17;;;;;;;7.52;100.00;102386.63;5023377;28;20065;-82
2021/11/16 06:05:23;;;;;;;55.40;28.70;;;;;;;7.54;100.00;102391.84;5023924;28;20038;-83
2021/11/16 06:07:48;;;;;;;63.30;30.30;;;;;;;6.76;100.00;102268.63;5023879;28;20101;-83
2021/11/16 06:10:14;;;;;;;57.03;28.92;;;;;;;7.54;100.00;102392.69;5024489;28;20040;-83
2021/11/16 06:12:41;;;;;;;59.58;29.77;;;;;;;7.57;100.00;102393.41;5023917;28;20130;-82
2021/11/16 06:15:09;;;;;;;62.85;30.60;;;;;;;7.59;100.00;102388.75;5022404;28;20021;-82
2021/11/16 06:17:34;;;;;;;66.75;29.25;;;;;;;7.56;100.00;102381.84;5023334;28;20459;-82
2021/11/16 06:20:02;;;;;;;62.10;29.33;;;;;;;7.56;100.00;102379.16;5027457;28;20026;-82
2021/11/16 06:22:28;;;;;;;58.65;28.80;;;;;;;7.58;100.00;102376.31;5023733;28;20028;-83
2021/11/16 06:24:53;;;;;;;57.78;29.45;;;;;;;7.53;100.00;102368.72;4991510;28;20093;-83
2021/11/16 06:27:19;;;;;;;53.22;28.42;;;;;;;7.32;100.00;102328.69;5021171;28;20087;-82
2021/11/16 06:29:46;;;;;;;57.03;29.10;;;;;;;7.63;100.00;102374.09;5023015;28;20033;-82
2021/11/16 06:32:12;;;;;;;65.10;30.65;;;;;;;7.52;100.00;102357.16;5021094;28;20021;-81
2021/11/16 06:34:38;;;;;;;63.05;30.98;;;;;;;7.46;100.00;102335.47;5007272;28;20059;-81
2021/11/16 06:37:04;;;;;;;71.55;30.98;;;;;;;7.62;100.00;102353.66;5004922;28;20077;-82
2021/11/16 06:39:31;;;;;;;67.18;30.63;;;;;;;7.61;100.00;102362.66;5003496;28;20502;-82
2021/11/16 06:41:59;;;;;;;63.42;30.15;;;;;;;7.64;100.00;102370.41;5006121;28;20080;-82
2021/11/16 06:44:25;;;;;;;66.90;30.15;;;;;;;7.44;100.00;102332.91;5021818;28;20057;-82
2021/11/16 06:47:04;;;;;;;65.05;30.98;;;;;;;7.24;100.00;102299.09;5023718;28;20030;-83
2021/11/16 06:49:30;;;;;;;59.30;28.45;;;;;;;7.52;100.00;102338.41;5004679;28;20474;-82
2021/11/16 06:51:57;;;;;;;65.53;29.13;;;;;;;7.62;100.00;102359.00;5028236;28;20073;-83
2021/11/16 06:54:25;;;;;;;62.40;29.05;;;;;;;7.61;100.00;102354.63;5026210;28;20010;-82
2021/11/16 06:56:51;;;;;;;59.20;27.55;;;;;;;7.59;100.00;102353.94;5020055;28;20021;-83
2021/11/16 06:59:20;;;;;;;57.72;27.83;;;;;;;7.55;100.00;102356.06;5002354;28;20040;-79
2021/11/16 07:01:46;;;;;;;57.58;25.65;;;;;;;7.51;100.00;102350.09;5017583;28;20049;-79
2021/11/16 07:04:13;;;;;;;53.97;24.88;;;;;;;7.49;100.00;102354.78;5017284;28;20097;-79
2021/11/16 07:06:44;;;;;;;52.17;25.45;;;;;;;7.50;100.00;102360.97;5017911;28;20021;-82
2021/11/16 07:09:13;;;;;;;50.05;25.10;;;;;;;7.20;100.00;102309.22;5018145;28;20403;-82
2021/11/16 07:11:46;;;;;;;56.90;26.10;;;;;;;7.08;100.00;102288.94;5015821;28;20034;-82
2021/11/16 07:14:14;;;;;;;56.35;26.25;;;;;;;7.45;100.00;102349.81;5015768;28;20040;-80
2021/11/16 07:16:54;;;;;;;50.50;24.98;;;;;;;7.45;100.00;102353.38;5017795;28;20054;-80
2021/11/16 07:19:39;;;;;;;49.75;24.05;;;;;;;7.44;100.00;102354.34;5015952;28;20088;-80
2021/11/16 07:22:20;;;;;;;54.10;25.97;;;;;;;7.42;100.00;102356.31;5016775;28;20466;-80
2021/11/16 07:24:49;;;;;;;54.35;25.20;;;;;;;7.42;100.00;102358.16;5016818;28;20283;-79
2021/11/16 07:27:19;;;;;;;49.97;24.52;;;;;;;7.41;100.00;102359.13;5017660;28;20133;-80
2021/11/16 07:29:51;;;;;;;51.75;25.10;;;;;;;7.27;100.00;102333.63;5015290;28;20021;-80
2021/11/16 07:32:23;;;;;;;52.03;25.73;;;;;;;7.36;100.00;102354.19;5019214;28;20100;-80
2021/11/16 07:34:51;;;;;;;51.83;25.50;;;;;;;7.38;100.00;102354.06;5034810;28;20074;-80
2021/11/16 07:37:24;;;;;;;51.05;25.02;;;;;;;7.03;100.00;102285.84;5026761;28;20026;-80
2021/11/16 07:40:20;;;;;;;53.97;26.30;;;;;;;7.40;100.00;102355.59;5018586;28;20529;-78
2021/11/16 07:43:12;;;;;;;50.65;24.80;;;;;;;7.38;100.00;102357.56;4983628;28;20081;-80
2021/11/16 07:45:56;;;;;;;55.83;27.25;;;;;;;7.41;100.00;102346.56;5015338;28;20061;-78
2021/11/16 07:48:28;;;;;;;53.53;26.83;;;;;;;7.41;100.00;102338.53;5017553;28;20038;-79
2021/11/16 07:51:05;;;;;;;58.63;26.45;;;;;;;7.28;100.00;102316.56;5013621;28;20051;-79
2021/11/16 07:53:51;;;;;;;54.40;27.05;;;;;;;7.46;100.00;102332.78;5008727;28;20075;-79
2021/11/16 07:56:22;;;;;;;53.92;26.27;;;;;;;7.46;100.00;102333.63;5014962;28;20053;-79
2021/11/16 07:58:59;;;;;;;54.60;26.45;;;;;;;7.47;100.00;102329.09;5018689;28;20053;-80
2021/11/16 08:04:24;;;;;;;49.85;24.67;;;;;;;7.22;100.00;102285.00;5017856;28;20040;-79
2021/11/16 08:07:02;;;;;;;53.88;26.13;;;;;;;7.50;100.00;102321.63;5018725;28;20033;-78
2021/11/16 08:12:09;;;;;;;46.70;23.20;;;;;;;7.56;100.00;102330.94;5027335;28;20036;-80
2021/11/16 08:14:35;;;;;;;48.17;22.98;;;;;;;7.65;100.00;102339.94;5027161;28;20022;-79
2021/11/16 08:17:04;;;;;;;48.67;23.48;;;;;;;7.63;100.00;102331.22;5021678;28;20084;-79
2021/11/16 08:19:34;;;;;;;52.35;23.73;;;;;;;7.64;100.00;102339.09;5018139;28;20053;-81
2021/11/16 08:22:05;;;;;;;48.88;24.30;;;;;;;7.70;100.00;102332.34;5018450;28;20022;-79
2021/11/16 08:24:33;;;;;;;50.00;25.10;;;;;;;7.71;100.00;102328.66;5015146;28;20113;-79
2021/11/16 08:27:01;;;;;;;50.08;23.50;;;;;;;7.72;100.00;102327.69;5015086;28;20340;-78
2021/11/16 08:29:31;;;;;;;50.35;24.48;;;;;;;7.63;100.00;102312.47;5022493;28;20021;-80
2021/11/16 08:32:07;;;;;;;50.38;24.45;;;;;;;7.71;100.00;102323.31;5016823;28;20030;-79
2021/11/16 08:34:35;;;;;;;49.00;23.88;;;;;;;7.65;100.00;102314.03;4996717;28;20030;-79
2021/11/16 08:37:00;;;;;;;44.17;24.00;;;;;;;7.71;100.00;102312.59;4996382;28;20031;-78
2021/11/16 08:39:37;;;;;;;43.17;23.00;;;;;;;7.71;100.00;102321.47;5012578;28;20064;-78
2021/11/16 08:42:31;;;;;;;44.78;22.52;;;;;;;7.75;100.00;102324.72;5032196;28;20028;-79
2021/11/16 08:45:03;;;;;;;32.72;17.75;;;;;;;7.73;100.00;102321.34;5014443;28;20031;-79
2021/11/16 08:47:34;;;;;;;25.63;14.57;;;;;;;7.42;100.00;102275.13;5015545;28;20061;-79
2021/11/16 08:50:00;;;;;;;23.67;13.00;;;;;;;7.61;100.00;102311.75;5014613;28;20028;-79
2021/11/16 08:52:28;;;;;;;17.35;10.98;;;;;;;7.65;100.00;102313.16;5016421;28;20029;-78
2021/11/16 08:55:01;;;;;;;17.95;11.05;;;;;;;7.68;100.00;102320.91;5016084;28;20026;-78
2021/11/16 08:57:30;;;;;;;16.60;10.60;;;;;;;7.55;100.00;102299.78;5015545;28;20018;-79
2021/11/16 08:59:56;;;;;;;16.58;10.32;;;;;;;7.62;100.00;102318.81;5015146;28;20092;-80
2021/11/16 09:02:24;;;;;;;16.02;9.93;;;;;;;7.51;100.00;102301.03;5013794;28;20050;-79
2021/11/16 09:04:51;;;;;;;23.60;11.63;;;;;;;7.67;100.00;102317.38;4998932;28;20041;-78
2021/11/16 09:07:24;;;;;;;16.63;10.48;;;;;;;7.72;100.00;102314.31;5013049;28;20048;-79
2021/11/16 09:09:55;;;;;;;17.67;11.30;;;;;;;7.73;100.00;102307.94;5016482;28;20044;-79
2021/11/16 09:12:32;;;;;;;17.88;11.60;;;;;;;7.68;100.00;102300.34;5015289;28;20452;-79
2021/11/16 09:14:58;;;;;;;17.88;10.27;;;;;;;7.72;100.00;102298.22;5014368;28;20021;-79
2021/11/16 09:17:23;;;;;;;17.13;10.25;;;;;;;7.73;100.00;102306.09;5018839;28;20036;-79
2021/11/16 09:19:49;;;;;;;16.10;10.15;;;;;;;7.68;100.00;102292.31;5001039;28;20025;-79
2021/11/16 09:22:16;;;;;;;17.30;10.65;;;;;;;7.80;100.00;102305.53;5014558;28;20099;-79
2021/11/16 09:24:43;;;;;;;14.07;9.70;;;;;;;7.79;100.00;102306.53;5015353;28;20080;-79
2021/11/16 09:27:34;;;;;;;13.43;9.20;;;;;;;7.76;100.00;102303.13;4998481;28;20719;-79
2021/11/16 09:29:56;;;;;;;12.50;8.40;;;;;;;7.75;100.00;102300.63;5013625;28;20026;-79
2021/11/16 09:32:22;;;;;;;13.23;8.65;;;;;;;7.76;100.00;102294.25;5014612;28;20095;-79
2021/11/16 09:34:54;;;;;;;12.90;8.50;;;;;;;7.86;100.00;102305.81;4998495;28;20363;-79
2021/11/16 09:37:23;;;;;;;12.52;8.65;;;;;;;7.63;100.00;102256.22;5014912;28;20060;-78
2021/11/16 09:39:51;;;;;;;12.35;8.20;;;;;;;7.89;100.00;102291.28;5019781;28;20026;-79
2021/11/16 09:42:32;;;;;;;13.35;7.65;;;;;;;7.90;100.00;102290.28;5019781;28;20060;-79
2021/11/16 09:45:09;;;;;;;13.05;7.95;;;;;;;7.80;100.00;102271.53;5013684;28;20052;-80
2021/11/16 09:47:37;;;;;;;13.35;7.95;;;;;;;7.89;100.00;102273.34;5015150;28;20030;-79
2021/11/16 09:50:24;;;;;;;11.32;8.15;;;;;;;7.95;100.00;102279.97;5014469;28;20026;-80
2021/11/16 09:52:53;;;;;;;12.25;8.32;;;;;;;7.94;100.00;102278.25;5013133;28;20079;-79
2021/11/16 09:55:30;;;;;;;12.05;8.50;;;;;;;7.87;100.00;102258.41;5013590;28;20030;-79
2021/11/16 09:58:20;;;;;;;11.55;7.53;;;;;;;7.95;100.00;102277.28;5012300;28;20032;-80
2021/11/16 10:00:46;;;;;;;11.38;7.53;;;;;;;7.95;100.00;102280.81;5006300;28;20026;-80
2021/11/16 10:03:24;;;;;;;11.55;7.93;;;;;;;7.98;100.00;102271.66;4997710;28;20433;-79
2021/11/16 10:05:54;;;;;;;13.82;8.27;;;;;;;8.00;100.00;102281.19;5017942;28;20038;-80
2021/11/16 10:08:21;;;;;;;12.07;7.65;;;;;;;7.98;100.00;102272.47;5020344;28;20053;-80
2021/11/16 10:10:50;;;;;;;11.30;7.50;;;;;;;8.04;100.00;102265.66;5016428;28;20502;-79
2021/11/16 10:13:18;;;;;;;11.65;7.97;;;;;;;8.05;100.00;102261.19;5015880;28;20076;-79
2021/11/16 10:15:48;;;;;;;11.52;7.75;;;;;;;8.03;100.00;102258.63;5013465;28;20104;-80
2021/11/16 10:18:16;;;;;;;11.68;8.20;;;;;;;8.04;100.00;102254.09;5015231;28;20059;-80
2021/11/16 10:20:43;;;;;;;11.45;8.45;;;;;;;7.98;100.00;102247.53;5015157;28;20068;-79
2021/11/16 10:23:13;;;;;;;14.20;8.85;;;;;;;7.97;100.00;102241.28;5020873;28;20069;-78
2021/11/16 10:25:48;;;;;;;13.75;8.75;;;;;;;7.88;100.00;102231.47;5016463;28;20026;-79
2021/11/16 10:28:16;;;;;;;16.13;9.00;;;;;;;7.90;100.00;102231.31;5012642;28;20101;-78
2021/11/16 10:30:44;;;;;;;12.55;8.38;;;;;;;8.00;100.00;102240.16;5014092;28;20032;-79
2021/11/16 10:33:15;;;;;;;13.00;8.75;;;;;;;7.98;100.00;102240.31;5012646;28;20355;-79
2021/11/16 10:35:47;;;;;;;14.63;9.27;;;;;;;7.96;100.00;102231.56;5014276;28;20396;-79
2021/11/16 10:38:20;;;;;;;14.68;9.27;;;;;;;7.93;100.00;102223.81;5014131;28;20026;-79
2021/11/16 10:40:46;;;;;;;14.80;9.27;;;;;;;7.75;100.00;102198.78;5010634;28;20037;-80
2021/11/16 10:43:12;;;;;;;13.63;8.50;;;;;;;7.96;100.00;102231.56;5015753;28;20444;-79
2021/11/16 10:45:45;;;;;;;15.57;9.55;;;;;;;7.89;99.87;102205.50;5012269;28;20046;-78
2021/11/16 10:48:12;;;;;;;12.77;8.68;;;;;;;7.94;100.00;102230.84;5020177;28;20052;-79
2021/11/16 10:50:40;;;;;;;16.02;9.52;;;;;;;7.91;99.68;102220.47;4997799;28;20032;-79
2021/11/16 10:53:12;;;;;;;15.77;9.23;;;;;;;7.72;99.29;102186.53;5012553;28;20026;-79
2021/11/16 10:55:45;;;;;;;14.75;9.98;;;;;;;7.93;99.63;102218.47;5012701;28;20021;-80
2021/11/16 10:58:15;;;;;;;15.52;10.00;;;;;;;7.93;99.71;102213.09;5013917;28;20053;-78
2021/11/16 11:01:02;;;;;;;14.68;9.77;;;;;;;7.98;99.41;102221.56;5014860;28;20406;-78
2021/11/16 11:03:44;;;;;;;16.08;9.85;;;;;;;7.96;99.52;102220.84;5029150;28;20045;-77
2021/11/16 11:06:11;;;;;;;14.57;9.90;;;;;;;7.96;99.54;102228.03;5013989;28;20096;-79
2021/11/16 11:08:56;;;;;;;15.52;9.52;;;;;;;7.96;99.72;102220.84;5015165;28;20084;-79
2021/11/16 11:11:33;;;;;;;16.67;10.57;;;;;;;7.92;99.02;102219.47;5012425;28;20025;-78
2021/11/16 11:14:35;;;;;;;17.60;10.43;;;;;;;7.98;99.43;102215.34;5012939;28;20033;-79
2021/11/16 11:17:05;;;;;;;17.70;10.35;;;;;;;7.98;100.00;102207.31;4995205;28;20034;-77
2021/11/16 11:19:36;;;;;;;14.88;10.32;;;;;;;7.86;99.58;102187.88;4996017;28;20018;-77
2021/11/16 11:24:48;;;;;;;19.95;11.73;;;;;;;7.91;99.99;102200.81;5019957;28;20041;-79
2021/11/16 11:27:29;;;;;;;18.92;12.07;;;;;;;7.85;99.95;102196.91;5017396;28;20022;-78
2021/11/16 11:29:56;;;;;;;21.85;11.93;;;;;;;7.87;99.62;102184.19;5019744;28;20022;-79
2021/11/16 11:32:27;;;;;;;17.73;11.77;;;;;;;7.81;99.86;102176.75;4999694;28;20052;-79
2021/11/16 11:35:07;;;;;;;19.00;11.50;;;;;;;7.90;99.39;102189.25;5015469;28;20049;-78
2021/11/16 11:37:40;;;;;;;20.88;12.13;;;;;;;7.92;99.41;102184.63;5027024;28;20037;-78
2021/11/16 11:40:14;;;;;;;20.10;12.23;;;;;;;7.76;99.66;102160.28;5010524;28;20026;-78
2021/11/16 11:43:04;;;;;;;20.88;12.68;;;;;;;7.92;98.91;102184.63;5008702;28;20625;-78
2021/11/16 11:45:34;;;;;;;20.52;12.02;;;;;;;7.91;99.41;102168.66;5012083;28;20038;-78